Página principal
METAR-TAF:

METAR-TAF

Aeroportos :

Nouadhibou, Mauritânia

latitude: 20-56N, longitude: 017-02W, altura: 5 m

Observação actual do tempo

O boletim foi feito há 27 minutos, às 20:00 UTC
Vento 16 kt de norte
Temperatura 21°C
Humidade 73%
Pressão 1014 hPa
Visibilidade: 4000 m
Areia baixa levantada pelo vento,

METAR: GQPP 132000Z 35016KT 4000 DRSA NSC 21/16 Q1014 NOSIG

Hora: 20:27 (20:27 UTC)

Previsão

O boletim foi feito há 3 horas e 27 minutos, às 17:00 UTC
Previsão válida de 13 às 18 UTC a 14 às 18 UTC
Vento 18 kt de norte
Visibilidade: 4000 m
Areia baixa levantada pelo vento
Tornando-se
de 13 às 19 UTC a 13 às 21 UTC
Visibilidade: 6000 m

TAF: GQPP 131700Z 1318/1418 36018KT 4000 DRSA NSC BECMG 1319/1321 6000 NSW

Observações e previsões do tempo de mais de 4000 aeroportos (mensagens METAR e TAF).

As estações disponíveis são os pontos amarelos e vermelhos sobre o mapa.

Mova o rato sobre o mapa para ver o nome da estação.

Depois clique no ponto para visualizar as observações e previsões meteorológicas.

Para alterar o mapa : clique nos botões verdes com uma cruz preta para aumentar o zoom; no botão verde com uma pitada de zoom; ou nas setas verdes para mapas adjacentes.


METAR-TAF: